createdAt,value
2023-02-06T00:01:25.138Z,27.10
2023-02-06T00:03:52.429Z,30.20
2023-02-06T00:06:19.716Z,29.05
2023-02-06T00:08:47.181Z,43.50
2023-02-06T00:11:19.247Z,23.90
2023-02-06T00:13:46.811Z,28.00
2023-02-06T00:16:22.934Z,34.03
2023-02-06T00:18:50.951Z,26.73
2023-02-06T00:21:21.747Z,27.75
2023-02-06T00:23:49.392Z,31.67
2023-02-06T00:26:17.341Z,33.38
2023-02-06T00:28:45.820Z,30.48
2023-02-06T00:31:14.066Z,25.02
2023-02-06T00:33:42.094Z,22.67
2023-02-06T00:36:09.888Z,26.58
2023-02-06T00:38:37.884Z,31.15
2023-02-06T00:41:05.540Z,21.83
2023-02-06T00:43:33.046Z,45.67
2023-02-06T00:46:00.461Z,34.85
2023-02-06T00:48:27.990Z,29.92
2023-02-06T00:50:55.687Z,32.45
2023-02-06T00:53:23.014Z,38.05
2023-02-06T00:55:50.460Z,29.60
2023-02-06T00:58:17.880Z,38.22
2023-02-06T01:00:45.232Z,30.85
2023-02-06T01:03:12.844Z,27.92
2023-02-06T01:05:40.215Z,23.45
2023-02-06T01:08:07.602Z,22.73
2023-02-06T01:10:34.893Z,40.83
2023-02-06T01:13:02.272Z,31.63
2023-02-06T01:15:29.605Z,37.25
2023-02-06T01:17:56.910Z,21.08
2023-02-06T01:20:24.841Z,38.00
2023-02-06T01:22:52.176Z,29.65
2023-02-06T01:25:19.902Z,38.95
2023-02-06T01:27:47.166Z,24.55
2023-02-06T01:30:14.950Z,34.58
2023-02-06T01:32:42.999Z,33.33
2023-02-06T01:35:12.054Z,34.08
2023-02-06T01:37:41.344Z,35.45
2023-02-06T01:40:14.247Z,21.98
2023-02-06T01:42:42.213Z,34.63
2023-02-06T01:45:30.455Z,22.40
2023-02-06T01:48:02.209Z,25.33
2023-02-06T01:50:31.842Z,29.52
2023-02-06T01:52:59.517Z,27.40
2023-02-06T01:55:26.886Z,27.20
2023-02-06T01:57:54.335Z,23.65
2023-02-06T02:00:21.680Z,24.73
2023-02-06T02:02:49.951Z,37.90
2023-02-06T02:05:19.265Z,25.77
2023-02-06T02:08:02.304Z,31.80
2023-02-06T02:10:31.449Z,31.90
2023-02-06T02:12:58.835Z,28.05
2023-02-06T02:15:52.739Z,28.30
2023-02-06T02:18:56.788Z,30.48
2023-02-06T02:21:54.764Z,32.33
2023-02-06T02:25:04.461Z,21.88
2023-02-06T02:27:47.160Z,35.80
2023-02-06T02:30:20.440Z,27.45
2023-02-06T02:33:20.957Z,32.10
2023-02-06T02:36:27.125Z,22.50
2023-02-06T02:39:10.240Z,37.67
2023-02-06T02:41:58.621Z,25.02
2023-02-06T02:44:25.942Z,27.17
2023-02-06T02:46:57.908Z,29.48
2023-02-06T02:49:29.748Z,22.73
2023-02-06T02:51:58.547Z,27.88
2023-02-06T02:54:26.488Z,26.58
2023-02-06T02:56:58.233Z,31.20
2023-02-06T02:59:34.182Z,22.17
2023-02-06T03:02:24.241Z,35.65
2023-02-06T03:04:56.019Z,34.47
2023-02-06T03:07:44.916Z,37.55
2023-02-06T03:10:21.638Z,31.55
2023-02-06T03:13:00.528Z,26.80
2023-02-06T03:15:55.297Z,33.67
2023-02-06T03:18:35.943Z,28.20
2023-02-06T03:21:09.626Z,38.30
2023-02-06T03:23:41.378Z,36.55
2023-02-06T03:26:13.544Z,57.53
2023-02-06T03:28:46.230Z,46.20
2023-02-06T03:31:19.019Z,38.92
2023-02-06T03:33:57.240Z,36.80
2023-02-06T03:36:24.601Z,40.50
2023-02-06T03:38:53.848Z,38.60
2023-02-06T03:41:25.731Z,31.90
2023-02-06T03:43:54.494Z,39.67
2023-02-06T03:46:23.116Z,32.10
2023-02-06T03:48:54.897Z,34.53
2023-02-06T03:51:28.715Z,35.60
2023-02-06T03:53:58.404Z,39.63
2023-02-06T03:56:35.522Z,34.10
2023-02-06T03:59:03.303Z,39.35
2023-02-06T04:01:30.710Z,32.60
2023-02-06T04:03:58.794Z,38.10
2023-02-06T04:06:26.204Z,28.75
2023-02-06T04:08:53.682Z,30.67
2023-02-06T04:11:20.977Z,33.58
2023-02-06T04:13:48.319Z,32.17
2023-02-06T04:16:15.611Z,37.47
2023-02-06T04:18:42.995Z,35.85
2023-02-06T04:21:10.278Z,46.65
2023-02-06T04:23:37.537Z,29.65
2023-02-06T04:26:04.940Z,43.40
2023-02-06T04:28:32.251Z,40.55
2023-02-06T04:30:59.868Z,33.50
2023-02-06T04:33:27.323Z,31.15
2023-02-06T04:35:54.702Z,37.28
2023-02-06T04:38:22.123Z,30.33
2023-02-06T04:40:49.561Z,37.42
2023-02-06T04:43:16.853Z,38.08
2023-02-06T04:45:44.304Z,31.00
2023-02-06T04:48:11.572Z,30.25
2023-02-06T04:50:38.818Z,27.83
2023-02-06T04:53:06.081Z,27.42
2023-02-06T04:55:35.751Z,33.20
2023-02-06T04:58:03.140Z,51.13
2023-02-06T05:00:30.462Z,29.73
2023-02-06T05:02:57.735Z,24.63
2023-02-06T05:05:25.072Z,31.92
2023-02-06T05:07:52.332Z,30.73
2023-02-06T05:10:19.908Z,23.02
2023-02-06T05:12:47.465Z,32.22
2023-02-06T05:15:14.827Z,45.90
2023-02-06T05:17:42.103Z,41.20
2023-02-06T05:20:10.040Z,35.17
2023-02-06T05:22:37.301Z,37.47
2023-02-06T05:25:04.719Z,28.02
2023-02-06T05:27:32.006Z,33.50
2023-02-06T05:29:59.363Z,41.30
2023-02-06T05:32:26.725Z,34.03
2023-02-06T05:34:53.965Z,30.05
2023-02-06T05:37:21.283Z,28.75
2023-02-06T05:39:48.558Z,45.70
2023-02-06T05:42:15.884Z,29.60
2023-02-06T05:44:43.191Z,29.70
2023-02-06T05:47:10.494Z,39.63
2023-02-06T05:49:37.790Z,33.20
2023-02-06T05:52:05.353Z,35.55
2023-02-06T05:54:32.627Z,37.10
2023-02-06T05:56:59.910Z,22.45
2023-02-06T05:59:27.235Z,34.55
2023-02-06T06:01:54.590Z,37.22
2023-02-06T06:04:21.922Z,37.70
2023-02-06T06:06:49.286Z,39.88
2023-02-06T06:09:16.664Z,36.13
2023-02-06T06:11:44.059Z,32.08
2023-02-06T06:14:12.089Z,39.40
2023-02-06T06:16:40.782Z,37.38
2023-02-06T06:19:08.410Z,29.80
2023-02-06T06:21:36.162Z,30.83
2023-02-06T06:24:03.694Z,42.13
2023-02-06T06:26:31.091Z,28.42
2023-02-06T06:28:58.503Z,36.03
2023-02-06T06:31:25.803Z,35.17
2023-02-06T06:33:54.285Z,32.47
2023-02-06T06:36:21.642Z,39.33
2023-02-06T06:38:49.092Z,36.35
2023-02-06T06:41:16.776Z,32.85
2023-02-06T06:43:44.082Z,46.97
2023-02-06T06:46:11.714Z,44.63
2023-02-06T06:48:40.358Z,36.42
2023-02-06T06:51:07.785Z,48.78
2023-02-06T06:53:39.861Z,43.25
2023-02-06T06:56:09.845Z,36.47
2023-02-06T06:58:37.136Z,46.50
2023-02-06T07:01:05.189Z,32.05
2023-02-06T07:03:32.706Z,33.88
2023-02-06T07:06:00.031Z,39.63
2023-02-06T07:08:30.061Z,35.10
2023-02-06T07:10:58.083Z,47.70
2023-02-06T07:13:25.461Z,31.85
2023-02-06T07:15:52.771Z,40.15
2023-02-06T07:18:20.135Z,37.97
2023-02-06T07:20:47.454Z,38.05
2023-02-06T07:23:14.698Z,34.40
2023-02-06T07:25:42.039Z,27.45
2023-02-06T07:28:09.528Z,38.00
2023-02-06T07:30:36.949Z,35.88
2023-02-06T07:33:05.815Z,29.92
2023-02-06T07:35:33.452Z,36.38
2023-02-06T07:38:00.989Z,47.75
2023-02-06T07:40:39.665Z,46.10
2023-02-06T07:43:12.084Z,40.47
2023-02-06T07:45:39.549Z,36.17
2023-02-06T07:48:07.764Z,35.50
2023-02-06T07:50:35.441Z,39.47
2023-02-06T07:53:02.797Z,41.95
2023-02-06T07:55:30.090Z,36.63
2023-02-06T07:57:57.419Z,47.78
2023-02-06T08:00:24.770Z,43.00
2023-02-06T08:02:52.098Z,33.50
2023-02-06T08:05:19.400Z,37.92
2023-02-06T08:07:47.012Z,32.00
2023-02-06T08:10:14.302Z,46.40
2023-02-06T08:12:41.717Z,44.13
2023-02-06T08:15:09.576Z,44.22
2023-02-06T08:17:36.827Z,41.50
2023-02-06T08:20:04.388Z,48.60
2023-02-06T08:22:31.688Z,35.03
2023-02-06T08:24:58.967Z,53.03
2023-02-06T08:27:27.302Z,38.50
2023-02-06T08:29:54.663Z,34.58
2023-02-06T08:32:21.980Z,48.80
2023-02-06T08:34:49.376Z,37.00
2023-02-06T08:37:16.639Z,41.70
2023-02-06T08:39:43.993Z,40.28
2023-02-06T08:42:11.262Z,37.80
2023-02-06T08:44:38.560Z,44.53
2023-02-06T08:47:10.307Z,37.15
2023-02-06T08:49:38.286Z,42.15
2023-02-06T08:52:05.966Z,47.03
2023-02-06T08:54:35.950Z,33.70
2023-02-06T08:57:03.829Z,52.22
2023-02-06T08:59:31.256Z,30.00
2023-02-06T09:01:58.554Z,37.00
2023-02-06T09:04:29.494Z,45.95
2023-02-06T09:06:56.788Z,39.88
2023-02-06T09:09:24.111Z,37.78
2023-02-06T09:11:51.400Z,40.83
2023-02-06T09:14:19.144Z,47.75
2023-02-06T09:16:46.468Z,40.55
2023-02-06T09:19:14.176Z,44.50
2023-02-06T09:21:41.851Z,38.00
2023-02-06T09:24:09.775Z,54.38
2023-02-06T09:26:53.493Z,49.15
2023-02-06T09:29:25.935Z,42.65
2023-02-06T09:31:53.200Z,46.15
2023-02-06T09:34:20.601Z,51.55
2023-02-06T09:36:47.976Z,45.72
2023-02-06T09:39:15.327Z,43.80
2023-02-06T09:41:52.316Z,64.15
2023-02-06T09:44:42.030Z,47.47
2023-02-06T09:47:14.984Z,49.20
2023-02-06T09:49:47.460Z,45.30
2023-02-06T09:52:36.874Z,31.67
2023-02-06T09:55:29.617Z,40.25
2023-02-06T09:58:09.804Z,38.65
2023-02-06T10:00:44.811Z,55.75
2023-02-06T10:03:31.225Z,41.22
2023-02-06T10:06:21.657Z,35.83
2023-02-06T10:09:14.178Z,47.33
2023-02-06T10:11:57.578Z,33.28
2023-02-06T10:14:44.518Z,49.72
2023-02-06T10:20:13.652Z,41.03
2023-02-06T10:22:47.317Z,42.53
2023-02-06T10:25:36.605Z,44.63
2023-02-06T10:28:26.350Z,36.75
2023-02-06T10:31:25.769Z,34.75
2023-02-06T10:34:11.194Z,36.47
2023-02-06T10:37:17.029Z,28.42
2023-02-06T10:40:27.936Z,36.65
2023-02-06T10:43:24.847Z,27.35
2023-02-06T10:46:29.913Z,34.92
2023-02-06T10:49:19.117Z,26.50
2023-02-06T10:51:52.825Z,33.75
2023-02-06T10:54:30.389Z,37.55
2023-02-06T10:57:00.673Z,29.95
2023-02-06T10:59:36.921Z,41.72
2023-02-06T11:02:04.212Z,29.15
2023-02-06T11:04:38.497Z,36.50
2023-02-06T11:07:15.050Z,33.42
2023-02-06T11:09:42.454Z,38.75
2023-02-06T11:12:28.906Z,29.00
2023-02-06T11:14:59.128Z,31.17
2023-02-06T11:17:28.427Z,28.90
2023-02-06T11:20:12.141Z,25.45
2023-02-06T11:22:52.047Z,22.20
2023-02-06T11:25:33.652Z,23.88
2023-02-06T11:28:01.408Z,22.35
2023-02-06T11:30:41.153Z,25.27
2023-02-06T11:33:18.662Z,22.23
2023-02-06T11:35:54.172Z,36.42
2023-02-06T11:38:24.604Z,23.83
2023-02-06T11:41:04.044Z,18.27
2023-02-06T11:43:42.096Z,18.83
2023-02-06T11:46:17.070Z,17.45
2023-02-06T11:48:48.673Z,16.50
2023-02-06T11:51:16.950Z,23.35
2023-02-06T11:54:00.507Z,27.23
2023-02-06T11:56:29.409Z,19.60
2023-02-06T11:59:16.557Z,21.35
2023-02-06T12:01:46.609Z,23.40
2023-02-06T12:04:32.389Z,17.85
2023-02-06T12:07:22.203Z,28.77
2023-02-06T12:09:49.620Z,28.27
2023-02-06T12:12:23.104Z,40.03
2023-02-06T12:14:58.369Z,33.80
2023-02-06T12:17:40.868Z,29.92
2023-02-06T12:20:18.377Z,29.08
2023-02-06T12:22:56.882Z,34.10
2023-02-06T12:25:33.921Z,34.25
2023-02-06T12:28:06.755Z,33.67
2023-02-06T12:30:43.661Z,24.50
2023-02-06T12:33:22.996Z,28.92
2023-02-06T12:36:00.765Z,26.77
2023-02-06T12:38:46.171Z,33.05
2023-02-06T12:41:39.116Z,28.10
2023-02-06T12:44:14.457Z,29.98
2023-02-06T12:46:45.607Z,37.40
2023-02-06T12:49:24.786Z,35.47
2023-02-06T12:52:04.906Z,31.20
2023-02-06T12:54:32.290Z,26.75
2023-02-06T12:57:15.952Z,22.17
2023-02-06T12:59:58.748Z,28.27
2023-02-06T13:03:03.833Z,43.10
2023-02-06T13:05:44.099Z,34.20
2023-02-06T13:08:20.330Z,28.20
2023-02-06T13:11:00.464Z,26.92
2023-02-06T13:13:31.639Z,27.75
2023-02-06T13:16:02.748Z,42.78
2023-02-06T13:18:42.130Z,27.17
2023-02-06T13:21:32.475Z,22.70
2023-02-06T13:24:02.520Z,18.10
2023-02-06T13:26:55.459Z,27.13
2023-02-06T13:29:23.328Z,25.05
2023-02-06T13:32:10.636Z,21.73
2023-02-06T13:34:48.557Z,26.52
2023-02-06T13:37:35.637Z,18.80
2023-02-06T13:40:23.909Z,32.55
2023-02-06T13:43:05.421Z,20.45
2023-02-06T13:45:46.244Z,28.55
2023-02-06T13:48:19.620Z,30.23
2023-02-06T13:50:55.570Z,26.13
2023-02-06T13:53:44.415Z,25.92
2023-02-06T13:56:43.230Z,19.33
2023-02-06T13:59:18.964Z,18.15
2023-02-06T14:01:46.428Z,22.52
2023-02-06T14:04:25.076Z,14.50
2023-02-06T14:07:04.618Z,22.63
2023-02-06T14:10:05.312Z,17.98
2023-02-06T14:12:53.121Z,16.58
2023-02-06T14:15:48.930Z,17.50
2023-02-06T14:18:28.984Z,21.30
2023-02-06T14:21:53.277Z,17.45
2023-02-06T14:24:32.482Z,14.48
2023-02-06T14:27:18.157Z,22.33
2023-02-06T14:30:12.746Z,18.88
2023-02-06T14:33:11.997Z,14.52
2023-02-06T14:36:00.434Z,16.17
2023-02-06T14:38:39.566Z,17.38
2023-02-06T14:41:07.709Z,18.05
2023-02-06T14:43:40.991Z,26.50
2023-02-06T14:46:13.586Z,22.48
2023-02-06T14:48:43.614Z,27.70
2023-02-06T14:51:34.749Z,23.38
2023-02-06T14:54:07.679Z,21.30
2023-02-06T14:56:39.326Z,14.25
2023-02-06T14:59:19.504Z,21.33
2023-02-06T15:01:50.334Z,15.10
2023-02-06T15:04:27.144Z,16.75
2023-02-06T15:06:55.855Z,17.58
2023-02-06T15:09:26.056Z,18.98
2023-02-06T15:11:58.487Z,13.27
2023-02-06T15:14:35.699Z,13.43
2023-02-06T15:17:03.555Z,13.07
2023-02-06T15:19:33.216Z,9.73
2023-02-06T15:22:03.683Z,13.43
2023-02-06T15:24:42.865Z,11.43
2023-02-06T15:27:27.619Z,18.42
2023-02-06T15:29:56.546Z,19.67
2023-02-06T15:32:31.549Z,17.13
2023-02-06T15:35:00.648Z,30.33
2023-02-06T15:37:32.510Z,24.75
2023-02-06T15:40:27.892Z,23.70
2023-02-06T15:42:55.663Z,25.52
2023-02-06T15:45:40.759Z,13.60
2023-02-06T15:48:16.539Z,19.13
2023-02-06T15:51:21.772Z,16.42
2023-02-06T15:53:51.114Z,18.35
2023-02-06T15:56:34.430Z,16.25
2023-02-06T15:59:12.549Z,26.50
2023-02-06T16:01:41.484Z,17.73
2023-02-06T16:05:05.464Z,16.67
2023-02-06T16:07:39.707Z,24.33
2023-02-06T16:10:27.818Z,24.80
2023-02-06T16:13:16.701Z,10.52
2023-02-06T16:16:16.529Z,24.20
2023-02-06T16:18:43.966Z,14.73
2023-02-06T16:21:11.532Z,26.88
2023-02-06T16:28:00.275Z,15.88
2023-02-06T16:30:49.026Z,20.30
2023-02-06T16:33:36.069Z,15.30
2023-02-06T16:36:28.842Z,14.93
2023-02-06T16:39:07.383Z,17.98
2023-02-06T16:44:14.154Z,18.23
2023-02-06T16:47:31.433Z,17.98
2023-02-06T16:50:04.725Z,18.20
2023-02-06T16:56:16.730Z,20.25
2023-02-06T16:58:45.196Z,19.40
2023-02-06T17:01:49.134Z,14.15
2023-02-06T17:04:23.287Z,13.65
2023-02-06T17:07:05.441Z,12.50
2023-02-06T17:10:01.420Z,10.52
2023-02-06T17:12:41.749Z,16.83
2023-02-06T17:18:30.073Z,22.77
2023-02-06T17:23:50.635Z,13.80
2023-02-06T17:29:18.552Z,20.33
2023-02-06T17:31:48.860Z,27.45
2023-02-06T17:34:17.700Z,19.73
2023-02-06T17:36:52.787Z,22.48
2023-02-06T17:39:26.626Z,15.10
2023-02-06T17:42:24.101Z,15.07
2023-02-06T17:44:56.224Z,26.08
2023-02-06T17:47:46.984Z,19.27
2023-02-06T17:50:21.295Z,17.33
2023-02-06T17:53:00.270Z,17.85
2023-02-06T17:55:31.787Z,12.90
2023-02-06T17:58:00.803Z,20.33
2023-02-06T18:00:28.193Z,29.27
2023-02-06T18:02:59.644Z,20.90
2023-02-06T18:05:30.196Z,14.82
2023-02-06T18:08:02.506Z,23.92
2023-02-06T18:10:35.785Z,24.77
2023-02-06T18:13:13.276Z,20.48
2023-02-06T18:15:52.841Z,27.55
2023-02-06T18:18:25.275Z,23.75
2023-02-06T18:20:52.998Z,20.38
2023-02-06T18:23:20.404Z,26.27
2023-02-06T18:25:47.733Z,27.90
2023-02-06T18:28:16.570Z,23.42
2023-02-06T18:30:45.091Z,25.48
2023-02-06T18:33:12.905Z,28.63
2023-02-06T18:35:44.321Z,22.90
2023-02-06T18:38:12.807Z,31.83
2023-02-06T18:40:41.706Z,36.22
2023-02-06T18:43:13.846Z,29.70
2023-02-06T18:46:01.833Z,32.20
2023-02-06T18:48:29.123Z,24.63
2023-02-06T18:54:56.754Z,34.78
2023-02-06T18:57:37.012Z,18.88
2023-02-06T19:00:13.683Z,31.85
2023-02-06T19:02:49.856Z,29.42
2023-02-06T19:05:22.712Z,25.52
2023-02-06T19:07:53.549Z,31.58
2023-02-06T19:10:21.835Z,34.28
2023-02-06T19:12:49.257Z,37.63
2023-02-06T19:15:16.628Z,31.73
2023-02-06T19:17:44.035Z,25.33
2023-02-06T19:20:12.247Z,25.23
2023-02-06T19:22:39.717Z,35.63
2023-02-06T19:25:10.977Z,41.22
2023-02-06T19:27:39.071Z,36.53
2023-02-06T19:30:08.040Z,28.85
2023-02-06T19:32:35.768Z,39.60
2023-02-06T19:35:04.458Z,42.08
2023-02-06T19:37:31.985Z,35.92
2023-02-06T19:39:59.316Z,31.23
2023-02-06T19:42:26.658Z,27.67
2023-02-06T19:44:57.325Z,38.75
2023-02-06T19:47:24.635Z,40.42
2023-02-06T19:50:07.056Z,37.90
2023-02-06T19:52:54.973Z,35.05
2023-02-06T19:55:40.819Z,31.08
2023-02-06T19:58:14.827Z,33.40
2023-02-06T20:00:44.164Z,33.20
2023-02-06T20:03:37.493Z,27.83
2023-02-06T20:06:07.116Z,31.52
2023-02-06T20:08:34.962Z,36.33
2023-02-06T20:11:11.751Z,34.28
2023-02-06T20:13:40.531Z,34.70
2023-02-06T20:16:30.373Z,43.00
2023-02-06T20:19:10.609Z,34.75
2023-02-06T20:21:56.740Z,41.90
2023-02-06T20:24:44.685Z,36.97
2023-02-06T20:27:23.365Z,30.70
2023-02-06T20:29:53.040Z,25.60
2023-02-06T20:32:56.776Z,35.05
2023-02-06T20:35:25.083Z,33.90
2023-02-06T20:37:52.363Z,32.50
2023-02-06T20:40:24.210Z,32.78
2023-02-06T20:43:00.998Z,36.47
2023-02-06T20:45:28.490Z,32.60
2023-02-06T20:47:55.909Z,39.13
2023-02-06T20:50:23.234Z,44.53
2023-02-06T20:52:50.513Z,43.63
2023-02-06T20:55:17.829Z,28.50
2023-02-06T20:57:45.101Z,30.85
2023-02-06T21:00:13.227Z,43.55
2023-02-06T21:02:40.838Z,34.42
2023-02-06T21:05:08.270Z,43.28
2023-02-06T21:07:35.701Z,39.13
2023-02-06T21:10:04.292Z,43.17
2023-02-06T21:12:31.572Z,31.33
2023-02-06T21:14:59.112Z,40.13
2023-02-06T21:17:45.722Z,52.78
2023-02-06T21:22:42.379Z,35.03
2023-02-06T21:25:09.696Z,38.53
2023-02-06T21:27:37.658Z,30.40
2023-02-06T21:30:05.592Z,45.42
2023-02-06T21:32:32.969Z,36.28
2023-02-06T21:35:00.509Z,38.28
2023-02-06T21:37:27.822Z,42.47
2023-02-06T21:39:55.098Z,30.88
2023-02-06T21:42:26.243Z,31.80
2023-02-06T21:44:53.595Z,32.25
2023-02-06T21:47:21.015Z,43.58
2023-02-06T21:49:48.324Z,35.42
2023-02-06T21:52:15.633Z,36.03
2023-02-06T21:54:42.964Z,31.77
2023-02-06T22:09:59.551Z,26.27
2023-02-06T22:16:06.767Z,30.73
2023-02-06T22:18:51.747Z,31.95
2023-02-06T22:21:30.615Z,28.40
2023-02-06T22:24:18.787Z,29.73
2023-02-06T22:26:48.307Z,31.42
2023-02-06T22:29:17.920Z,30.05
2023-02-06T22:34:51.348Z,27.90
2023-02-06T22:37:26.195Z,37.15
2023-02-06T22:40:10.468Z,34.22
2023-02-06T22:42:40.600Z,39.47
2023-02-06T22:45:19.825Z,35.70
2023-02-06T22:48:04.196Z,40.13
2023-02-06T22:50:41.374Z,45.55
2023-02-06T22:53:38.361Z,33.80
2023-02-06T22:59:24.055Z,48.40
2023-02-06T23:01:52.702Z,45.90
2023-02-06T23:04:25.520Z,47.20
2023-02-06T23:06:53.341Z,36.72
2023-02-06T23:09:27.037Z,34.33
2023-02-06T23:11:54.967Z,31.92
2023-02-06T23:14:22.315Z,41.85
2023-02-06T23:16:50.842Z,38.50
2023-02-06T23:19:19.575Z,30.77
2023-02-06T23:21:49.075Z,35.55
2023-02-06T23:24:16.860Z,52.22
2023-02-06T23:26:45.867Z,37.25
2023-02-06T23:29:18.283Z,36.15
2023-02-06T23:31:47.046Z,39.20
2023-02-06T23:34:15.321Z,32.05
2023-02-06T23:36:43.118Z,44.85
2023-02-06T23:39:11.784Z,27.35
2023-02-06T23:41:39.494Z,43.67
2023-02-06T23:44:08.740Z,41.17
2023-02-06T23:46:38.182Z,33.88
2023-02-06T23:49:06.490Z,40.00
2023-02-06T23:51:35.247Z,42.55
2023-02-06T23:54:02.752Z,35.38
2023-02-06T23:56:31.801Z,27.80
2023-02-06T23:59:00.744Z,35.17
